createdAt,value
2022-11-15T00:01:09.008Z,7.20
2022-11-15T00:03:36.846Z,7.10
2022-11-15T00:06:05.286Z,7.20
2022-11-15T00:08:33.557Z,7.20
2022-11-15T00:11:04.188Z,7.20
2022-11-15T00:17:52.692Z,7.10
2022-11-15T00:20:20.492Z,7.10
2022-11-15T00:22:48.275Z,7.10
2022-11-15T00:25:16.051Z,7.00
2022-11-15T00:27:43.822Z,7.00
2022-11-15T00:30:13.445Z,7.00
2022-11-15T00:32:41.355Z,7.00
2022-11-15T00:35:10.685Z,7.00
2022-11-15T00:37:38.451Z,7.00
2022-11-15T00:40:07.292Z,7.00
2022-11-15T00:42:35.039Z,7.00
2022-11-15T00:45:02.847Z,7.00
2022-11-15T00:47:30.682Z,7.00
2022-11-15T00:49:58.448Z,6.90
2022-11-15T00:52:27.567Z,6.90
2022-11-15T00:54:55.336Z,6.90
2022-11-15T00:57:23.198Z,6.80
2022-11-15T00:59:50.964Z,6.80
2022-11-15T01:02:18.717Z,6.70
2022-11-15T01:04:46.506Z,6.70
2022-11-15T01:07:14.412Z,6.70
2022-11-15T01:09:43.537Z,6.70
2022-11-15T01:12:11.319Z,6.60
2022-11-15T01:14:39.075Z,6.60
2022-11-15T01:17:06.911Z,6.50
2022-11-15T01:19:37.579Z,6.40
2022-11-15T01:22:05.387Z,6.40
2022-11-15T01:24:33.143Z,6.40
2022-11-15T01:27:02.232Z,6.30
2022-11-15T01:29:29.985Z,6.40
2022-11-15T01:31:57.760Z,6.40
2022-11-15T01:34:25.549Z,6.40
2022-11-15T01:36:53.328Z,6.40
2022-11-15T01:39:21.195Z,6.30
2022-11-15T01:41:48.987Z,6.20
2022-11-15T01:44:42.271Z,6.10
2022-11-15T01:47:14.020Z,6.00
2022-11-15T01:49:50.643Z,6.00
2022-11-15T01:52:22.649Z,5.90
2022-11-15T01:54:54.928Z,5.80
2022-11-15T01:57:22.852Z,5.70
2022-11-15T01:59:52.371Z,5.70
2022-11-15T02:02:20.142Z,5.60
2022-11-15T02:04:48.915Z,5.60
2022-11-15T02:07:19.325Z,5.60
2022-11-15T02:09:48.039Z,5.60
2022-11-15T02:12:20.376Z,5.60
2022-11-15T02:14:54.012Z,5.60
2022-11-15T02:17:34.428Z,5.70
2022-11-15T02:20:41.106Z,5.70
2022-11-15T02:23:52.385Z,5.80
2022-11-15T02:26:52.652Z,5.80
2022-11-15T02:29:34.424Z,5.80
2022-11-15T02:32:12.496Z,5.90
2022-11-15T02:34:53.376Z,5.90
2022-11-15T02:37:27.662Z,6.00
2022-11-15T02:40:08.686Z,6.10
2022-11-15T02:43:02.107Z,6.20
2022-11-15T02:45:38.661Z,6.10
2022-11-15T02:48:09.022Z,6.10
2022-11-15T02:50:37.400Z,6.00
2022-11-15T02:53:05.386Z,6.00
2022-11-15T02:55:35.333Z,6.00
2022-11-15T02:58:24.653Z,5.90
2022-11-15T03:01:01.335Z,5.80
2022-11-15T03:03:48.703Z,5.80
2022-11-15T03:06:26.480Z,5.80
2022-11-15T03:09:04.906Z,5.80
2022-11-15T03:11:37.980Z,5.80
2022-11-15T03:14:14.447Z,5.90
2022-11-15T03:16:47.431Z,5.90
2022-11-15T03:19:27.484Z,5.90
2022-11-15T03:21:57.959Z,5.80
2022-11-15T03:24:28.264Z,5.80
2022-11-15T03:26:58.870Z,5.70
2022-11-15T03:29:31.584Z,5.60
2022-11-15T03:32:02.689Z,5.60
2022-11-15T03:34:37.344Z,5.60
2022-11-15T03:37:05.963Z,5.50
2022-11-15T03:39:34.313Z,5.50
2022-11-15T03:42:13.556Z,5.40
2022-11-15T03:44:48.121Z,5.40
2022-11-15T03:47:19.570Z,5.40
2022-11-15T03:49:52.407Z,5.40
2022-11-15T03:52:21.514Z,5.30
2022-11-15T03:54:54.363Z,5.30
2022-11-15T03:57:22.436Z,5.30
2022-11-15T03:59:50.362Z,5.30
2022-11-15T04:02:18.221Z,5.30
2022-11-15T04:04:46.072Z,5.30
2022-11-15T04:07:15.360Z,5.30
2022-11-15T04:09:57.446Z,5.30
2022-11-15T04:12:31.690Z,5.20
2022-11-15T04:15:10.308Z,5.20
2022-11-15T04:17:40.558Z,5.20
2022-11-15T04:20:29.046Z,5.20
2022-11-15T04:23:17.424Z,5.10
2022-11-15T04:25:46.590Z,5.10
2022-11-15T04:28:14.488Z,4.90
2022-11-15T04:30:42.381Z,5.00
2022-11-15T04:33:10.273Z,5.00
2022-11-15T04:35:38.140Z,5.00
2022-11-15T04:38:08.707Z,5.00
2022-11-15T04:40:37.152Z,5.00
2022-11-15T04:43:05.520Z,5.00
2022-11-15T04:45:33.390Z,5.00
2022-11-15T04:48:01.275Z,5.00
2022-11-15T04:50:29.131Z,5.00
2022-11-15T04:52:57.014Z,4.90
2022-11-15T04:55:26.272Z,4.90
2022-11-15T04:58:01.324Z,4.80
2022-11-15T05:00:30.490Z,4.70
2022-11-15T05:03:17.011Z,4.60
2022-11-15T05:05:44.883Z,4.50
2022-11-15T05:08:12.744Z,4.50
2022-11-15T05:10:41.952Z,4.40
2022-11-15T05:13:09.828Z,4.40
2022-11-15T05:15:37.738Z,4.40
2022-11-15T05:18:05.640Z,4.40
2022-11-15T05:20:33.545Z,4.30
2022-11-15T05:23:01.486Z,4.30
2022-11-15T05:25:29.432Z,4.30
2022-11-15T05:27:58.659Z,4.20
2022-11-15T05:30:26.540Z,4.10
2022-11-15T05:32:55.735Z,4.00
2022-11-15T05:35:31.847Z,4.00
2022-11-15T05:37:59.881Z,4.00
2022-11-15T05:40:28.389Z,4.00
2022-11-15T05:42:58.023Z,4.00
2022-11-15T05:45:27.124Z,3.90
2022-11-15T05:47:58.643Z,3.90
2022-11-15T05:50:27.016Z,3.80
2022-11-15T05:53:00.879Z,3.90
2022-11-15T05:55:31.599Z,4.00
2022-11-15T05:58:01.831Z,4.10
2022-11-15T06:00:30.733Z,4.20
2022-11-15T06:02:58.605Z,4.30
2022-11-15T06:05:26.461Z,4.20
2022-11-15T06:07:54.320Z,4.20
2022-11-15T06:10:22.203Z,4.20
2022-11-15T06:13:00.075Z,4.10
2022-11-15T06:15:28.031Z,4.30
2022-11-15T06:17:59.276Z,4.40
2022-11-15T06:20:27.530Z,4.40
2022-11-15T06:22:58.996Z,4.40
2022-11-15T06:25:27.259Z,4.40
2022-11-15T06:27:55.830Z,4.40
2022-11-15T06:30:26.299Z,4.40
2022-11-15T06:32:59.977Z,4.40
2022-11-15T06:35:27.859Z,4.40
2022-11-15T06:37:55.730Z,4.30
2022-11-15T06:40:23.875Z,4.40
2022-11-15T06:42:51.744Z,4.40
2022-11-15T06:45:19.591Z,4.50
2022-11-15T06:47:49.068Z,4.60
2022-11-15T06:50:17.288Z,4.70
2022-11-15T06:52:45.188Z,4.70
2022-11-15T06:55:13.156Z,4.70
2022-11-15T06:57:48.663Z,4.80
2022-11-15T07:00:18.020Z,4.90
2022-11-15T07:02:46.465Z,5.10
2022-11-15T07:05:16.748Z,5.40
2022-11-15T07:07:44.623Z,5.80
2022-11-15T07:10:12.577Z,6.20
2022-11-15T07:12:40.472Z,6.40
2022-11-15T07:15:09.525Z,6.90
2022-11-15T07:17:37.392Z,7.40
2022-11-15T07:20:06.089Z,7.50
2022-11-15T07:22:35.317Z,7.50
2022-11-15T07:25:03.192Z,7.40
2022-11-15T07:27:31.364Z,7.40
2022-11-15T07:29:59.689Z,7.50
2022-11-15T07:32:27.636Z,7.70
2022-11-15T07:34:55.522Z,7.80
2022-11-15T07:37:23.411Z,7.80
2022-11-15T07:39:52.615Z,7.80
2022-11-15T07:42:37.793Z,7.90
2022-11-15T07:45:06.485Z,8.00
2022-11-15T07:51:59.276Z,8.70
2022-11-15T07:54:27.196Z,10.90
2022-11-15T07:56:56.444Z,12.00
2022-11-15T07:59:24.298Z,13.90
2022-11-15T08:01:52.315Z,16.10
2022-11-15T08:04:20.474Z,18.30
2022-11-15T08:06:48.351Z,20.00
2022-11-15T08:09:16.301Z,21.70
2022-11-15T08:11:44.146Z,23.30
2022-11-15T08:14:13.603Z,24.80
2022-11-15T08:16:41.449Z,26.40
2022-11-15T08:19:09.345Z,27.80
2022-11-15T08:21:38.245Z,28.90
2022-11-15T08:24:06.849Z,29.80
2022-11-15T08:26:34.728Z,30.60
2022-11-15T08:29:02.579Z,31.40
2022-11-15T08:31:31.865Z,32.00
2022-11-15T08:33:59.747Z,32.50
2022-11-15T08:36:32.086Z,32.80
2022-11-15T08:39:05.612Z,33.30
2022-11-15T08:41:37.830Z,33.50
2022-11-15T08:44:06.593Z,33.70
2022-11-15T08:46:35.836Z,33.90
2022-11-15T08:49:04.836Z,34.30
2022-11-15T08:51:32.729Z,34.80
2022-11-15T08:54:00.604Z,35.00
2022-11-15T08:56:28.520Z,35.00
2022-11-15T08:58:56.392Z,34.70
2022-11-15T09:01:24.781Z,34.80
2022-11-15T09:03:54.642Z,34.80
2022-11-15T09:06:22.516Z,32.80
2022-11-15T09:08:50.440Z,29.10
2022-11-15T09:11:21.074Z,25.40
2022-11-15T09:13:48.966Z,22.40
2022-11-15T09:16:17.110Z,19.80
2022-11-15T09:18:45.009Z,17.90
2022-11-15T09:21:14.239Z,16.50
2022-11-15T09:23:42.293Z,15.60
2022-11-15T09:26:10.488Z,14.80
2022-11-15T09:28:39.063Z,14.20
2022-11-15T09:31:07.784Z,13.90
2022-11-15T09:33:36.045Z,13.70
2022-11-15T09:36:05.636Z,13.70
2022-11-15T09:38:35.913Z,13.70
2022-11-15T09:41:36.180Z,13.70
2022-11-15T09:44:25.101Z,13.80
2022-11-15T09:47:05.756Z,14.40
2022-11-15T09:49:34.186Z,15.30
2022-11-15T09:52:02.363Z,16.50
2022-11-15T09:57:26.675Z,20.00
2022-11-15T10:00:38.834Z,22.20
2022-11-15T10:03:06.413Z,23.70
2022-11-15T10:05:39.573Z,25.00
2022-11-15T10:08:18.089Z,26.00
2022-11-15T10:11:00.582Z,27.00
2022-11-15T10:13:42.293Z,28.00
2022-11-15T10:16:19.428Z,29.10
2022-11-15T10:23:03.149Z,30.90
2022-11-15T10:25:32.971Z,32.00
2022-11-15T10:28:11.647Z,32.40
2022-11-15T10:30:41.465Z,32.60
2022-11-15T10:33:34.540Z,33.30
2022-11-15T10:36:21.288Z,33.70
2022-11-15T10:38:59.991Z,33.30
2022-11-15T10:41:38.693Z,33.30
2022-11-15T10:44:21.489Z,33.50
2022-11-15T10:47:05.252Z,33.70
2022-11-15T10:49:34.818Z,33.80
2022-11-15T10:52:05.059Z,34.30
2022-11-15T10:54:38.166Z,34.20
2022-11-15T10:57:10.457Z,32.30
2022-11-15T10:59:40.345Z,29.10
2022-11-15T11:02:30.116Z,26.00
2022-11-15T11:04:58.884Z,23.20
2022-11-15T11:07:28.474Z,22.00
2022-11-15T11:10:01.340Z,22.90
2022-11-15T11:12:32.360Z,24.80
2022-11-15T11:15:04.262Z,26.80
2022-11-15T11:17:42.069Z,28.60
2022-11-15T11:20:17.544Z,30.30
2022-11-15T11:23:04.764Z,31.40
2022-11-15T11:25:37.591Z,32.00
2022-11-15T11:28:19.093Z,32.50
2022-11-15T11:31:00.294Z,33.00
2022-11-15T11:33:33.627Z,32.80
2022-11-15T11:36:14.585Z,32.70
2022-11-15T11:38:54.970Z,32.60
2022-11-15T11:41:39.507Z,32.60
2022-11-15T11:44:22.728Z,31.70
2022-11-15T11:46:57.657Z,30.70
2022-11-15T11:49:32.996Z,29.50
2022-11-15T11:52:07.023Z,28.90
2022-11-15T11:54:43.824Z,28.80
2022-11-15T11:57:22.820Z,28.20
2022-11-15T11:59:57.791Z,27.20
2022-11-15T12:02:32.643Z,26.60
2022-11-15T12:05:11.460Z,26.30
2022-11-15T12:07:40.956Z,26.00
2022-11-15T12:10:21.315Z,25.80
2022-11-15T12:12:57.373Z,26.10
2022-11-15T12:15:29.299Z,26.70
2022-11-15T12:17:59.937Z,27.10
2022-11-15T12:20:31.418Z,27.40
2022-11-15T12:23:07.895Z,27.70
2022-11-15T12:25:45.112Z,27.80
2022-11-15T12:28:19.916Z,27.10
2022-11-15T12:30:52.866Z,26.60
2022-11-15T12:33:34.741Z,26.50
2022-11-15T12:36:05.685Z,26.50
2022-11-15T12:38:56.174Z,26.00
2022-11-15T12:41:25.417Z,25.50
2022-11-15T12:43:53.770Z,25.20
2022-11-15T12:46:25.268Z,25.20
2022-11-15T12:48:57.561Z,25.00
2022-11-15T12:51:55.184Z,24.50
2022-11-15T12:54:57.316Z,24.00
2022-11-15T12:57:52.265Z,23.70
2022-11-15T13:00:40.948Z,23.10
2022-11-15T13:03:24.303Z,22.30
2022-11-15T13:06:34.773Z,21.40
2022-11-15T13:09:02.689Z,20.60
2022-11-15T13:11:53.931Z,19.90
2022-11-15T13:14:41.693Z,19.30
2022-11-15T13:17:44.452Z,18.80
2022-11-15T13:20:31.528Z,18.40
2022-11-15T13:23:09.745Z,18.10
2022-11-15T13:26:21.590Z,17.80
2022-11-15T13:28:52.801Z,17.40
2022-11-15T13:31:44.029Z,17.10
2022-11-15T13:37:33.328Z,16.70
2022-11-15T13:40:31.152Z,16.50
2022-11-15T13:42:59.547Z,16.30
2022-11-15T13:45:27.859Z,16.10
2022-11-15T13:48:00.276Z,16.00
2022-11-15T13:50:38.496Z,15.90
2022-11-15T13:53:07.877Z,15.80
2022-11-15T13:55:35.971Z,15.70
2022-11-15T13:58:14.069Z,15.50
2022-11-15T14:00:44.230Z,15.30
2022-11-15T14:03:19.733Z,15.10
2022-11-15T14:06:04.307Z,15.00
2022-11-15T14:08:33.829Z,15.00
2022-11-15T14:11:11.613Z,15.00
2022-11-15T14:13:39.542Z,15.00
2022-11-15T14:16:18.631Z,14.90
2022-11-15T14:18:50.287Z,14.80
2022-11-15T14:21:18.987Z,14.70
2022-11-15T14:23:49.873Z,14.60
2022-11-15T14:26:31.907Z,14.50
2022-11-15T14:29:20.023Z,14.40
2022-11-15T14:31:47.987Z,14.30
2022-11-15T14:34:15.833Z,14.20
2022-11-15T14:36:43.687Z,14.10
2022-11-15T14:39:12.881Z,14.00
2022-11-15T14:41:40.737Z,13.90
2022-11-15T14:44:12.412Z,13.80
2022-11-15T14:46:40.302Z,13.70
2022-11-15T14:49:08.182Z,13.50
2022-11-15T14:51:36.064Z,13.50
2022-11-15T14:54:03.952Z,13.30
2022-11-15T14:56:33.177Z,13.40
2022-11-15T14:59:01.095Z,13.30
2022-11-15T15:01:29.203Z,13.20
2022-11-15T15:03:58.010Z,13.20
2022-11-15T15:06:26.145Z,13.10
2022-11-15T15:08:54.043Z,13.20
2022-11-15T15:11:24.783Z,13.00
2022-11-15T15:13:57.264Z,12.90
2022-11-15T15:16:25.420Z,13.00
2022-11-15T15:18:53.332Z,12.90
2022-11-15T15:21:23.868Z,12.70
2022-11-15T15:23:52.161Z,12.70
2022-11-15T15:26:20.041Z,12.50
2022-11-15T15:28:49.488Z,12.40
2022-11-15T15:31:18.979Z,12.40
2022-11-15T15:33:47.020Z,12.30
2022-11-15T15:36:18.032Z,12.20
2022-11-15T15:38:47.488Z,12.00
2022-11-15T15:41:16.953Z,11.70
2022-11-15T15:43:44.978Z,11.50
2022-11-15T15:46:15.768Z,11.30
2022-11-15T15:48:45.372Z,11.20
2022-11-15T15:51:19.800Z,11.10
2022-11-15T15:53:48.970Z,11.00
2022-11-15T15:56:16.869Z,11.10
2022-11-15T15:58:44.852Z,11.00
2022-11-15T16:01:12.827Z,10.90
2022-11-15T16:03:40.771Z,10.90
2022-11-15T16:06:45.167Z,10.80
2022-11-15T16:09:17.324Z,10.70
2022-11-15T16:11:47.416Z,10.60
2022-11-15T16:14:15.477Z,10.50
2022-11-15T16:16:43.353Z,10.20
2022-11-15T16:19:13.008Z,10.00
2022-11-15T16:21:40.908Z,9.90
2022-11-15T16:24:08.784Z,9.70
2022-11-15T16:26:39.159Z,9.60
2022-11-15T16:29:07.845Z,9.50
2022-11-15T16:31:35.736Z,9.50
2022-11-15T16:34:03.640Z,9.50
2022-11-15T16:36:34.276Z,9.50
2022-11-15T16:39:04.809Z,9.50
2022-11-15T16:41:32.968Z,9.50
2022-11-15T16:44:02.207Z,9.50
2022-11-15T16:46:30.213Z,9.50
2022-11-15T16:48:58.758Z,9.50
2022-11-15T16:51:26.620Z,9.50
2022-11-15T16:53:54.514Z,9.50
2022-11-15T16:56:26.892Z,9.50
2022-11-15T16:58:55.669Z,9.60
2022-11-15T17:01:26.681Z,9.50
2022-11-15T17:03:55.141Z,9.60
2022-11-15T17:06:23.783Z,9.60
2022-11-15T17:08:51.676Z,9.50
2022-11-15T17:11:21.212Z,9.50
2022-11-15T17:13:49.727Z,9.50
2022-11-15T17:16:19.489Z,9.40
2022-11-15T17:18:52.432Z,9.30
2022-11-15T17:21:22.425Z,9.30
2022-11-15T17:23:50.612Z,9.20
2022-11-15T17:26:29.469Z,9.20
2022-11-15T17:29:00.828Z,9.20
2022-11-15T17:31:30.593Z,9.20
2022-11-15T17:33:59.816Z,9.20
2022-11-15T17:36:27.876Z,9.20
2022-11-15T17:38:59.538Z,9.20
2022-11-15T17:41:28.227Z,9.20
2022-11-15T17:43:58.930Z,9.10
2022-11-15T17:46:27.917Z,9.10
2022-11-15T17:48:56.550Z,9.10
2022-11-15T17:51:26.135Z,9.10
2022-11-15T17:53:54.080Z,9.10
2022-11-15T17:56:23.132Z,9.10
2022-11-15T17:58:52.220Z,9.20
2022-11-15T18:01:22.245Z,9.20
2022-11-15T18:03:50.467Z,9.30
2022-11-15T18:06:19.749Z,9.30
2022-11-15T18:08:51.111Z,9.30
2022-11-15T18:11:21.689Z,9.30
2022-11-15T18:13:52.758Z,9.30
2022-11-15T18:16:22.960Z,9.30
2022-11-15T18:18:50.875Z,9.30
2022-11-15T18:21:21.571Z,9.30
2022-11-15T18:23:54.515Z,9.30
2022-11-15T18:26:27.107Z,9.20
2022-11-15T18:28:56.603Z,9.30
2022-11-15T18:31:27.042Z,9.20
2022-11-15T18:33:55.461Z,9.20
2022-11-15T18:36:25.514Z,9.20
2022-11-15T18:38:57.240Z,9.20
2022-11-15T18:41:28.942Z,9.20
2022-11-15T18:43:57.627Z,9.20
2022-11-15T18:46:27.185Z,9.30
2022-11-15T18:48:56.023Z,9.30
2022-11-15T18:51:25.988Z,9.30
2022-11-15T18:53:56.628Z,9.30
2022-11-15T18:56:26.097Z,9.30
2022-11-15T18:58:56.278Z,9.30
2022-11-15T19:01:26.065Z,9.30
2022-11-15T19:03:55.721Z,9.40
2022-11-15T19:06:25.874Z,9.50
2022-11-15T19:08:57.267Z,9.50
2022-11-15T19:11:28.827Z,9.50
2022-11-15T19:13:57.880Z,9.50
2022-11-15T19:16:26.477Z,9.50
2022-11-15T19:18:55.295Z,9.50
2022-11-15T19:21:23.619Z,9.50
2022-11-15T19:23:52.884Z,9.50
2022-11-15T19:26:23.596Z,9.50
2022-11-15T19:28:53.268Z,9.50
2022-11-15T19:31:21.816Z,9.50
2022-11-15T19:33:49.667Z,9.40
2022-11-15T19:36:19.587Z,9.40
2022-11-15T19:38:47.656Z,9.40
2022-11-15T19:41:18.028Z,9.40
2022-11-15T19:43:48.645Z,9.40
2022-11-15T19:46:16.816Z,9.50
2022-11-15T19:48:45.130Z,9.50
2022-11-15T19:51:14.729Z,9.50
2022-11-15T19:53:43.264Z,9.60
2022-11-15T19:56:13.276Z,9.70
2022-11-15T19:58:41.378Z,9.70
2022-11-15T20:01:19.767Z,9.80
2022-11-15T20:03:48.808Z,9.80
2022-11-15T20:06:18.621Z,9.80
2022-11-15T20:08:47.760Z,9.80
2022-11-15T20:11:16.413Z,9.80
2022-11-15T20:13:44.435Z,9.80
2022-11-15T20:16:18.157Z,9.80
2022-11-15T20:18:46.437Z,9.80
2022-11-15T20:21:14.582Z,9.90
2022-11-15T20:23:42.756Z,9.90
2022-11-15T20:26:11.384Z,9.90
2022-11-15T20:28:40.780Z,9.90
2022-11-15T20:31:10.484Z,9.90
2022-11-15T20:33:40.090Z,9.90
2022-11-15T20:36:11.723Z,9.90
2022-11-15T20:38:40.242Z,9.80
2022-11-15T20:41:08.691Z,9.80
2022-11-15T20:43:36.664Z,9.70
2022-11-15T20:46:04.631Z,9.70
2022-11-15T20:48:32.849Z,9.70
2022-11-15T20:51:13.032Z,9.70
2022-11-15T20:53:42.009Z,9.70
2022-11-15T20:56:13.064Z,9.70
2022-11-15T20:58:41.544Z,9.80
2022-11-15T21:01:11.847Z,9.80
2022-11-15T21:03:39.852Z,9.80
2022-11-15T21:06:08.539Z,9.80
2022-11-15T21:08:55.754Z,9.80
2022-11-15T21:11:43.776Z,9.80
2022-11-15T21:14:11.766Z,9.70
2022-11-15T21:16:39.959Z,9.70
2022-11-15T21:19:08.342Z,9.60
2022-11-15T21:21:36.964Z,9.60
2022-11-15T21:24:07.511Z,9.50
2022-11-15T21:26:35.596Z,9.40
2022-11-15T21:29:03.869Z,9.30
2022-11-15T21:31:32.081Z,9.20
2022-11-15T21:34:01.894Z,9.20
2022-11-15T21:36:29.796Z,9.20
2022-11-15T21:38:57.669Z,9.10
2022-11-15T21:41:27.760Z,9.10
2022-11-15T21:43:58.717Z,9.10
2022-11-15T21:46:27.040Z,9.10
2022-11-15T21:48:54.904Z,9.10
2022-11-15T21:51:23.313Z,9.10
2022-11-15T21:53:54.674Z,9.00
2022-11-15T21:56:22.769Z,9.00
2022-11-15T21:58:52.316Z,8.90
2022-11-15T22:01:38.228Z,8.90
2022-11-15T22:04:06.969Z,8.80
2022-11-15T22:06:35.199Z,8.70
2022-11-15T22:09:03.787Z,8.60
2022-11-15T22:11:32.071Z,8.60
2022-11-15T22:14:01.548Z,8.50
2022-11-15T22:16:29.546Z,8.30
2022-11-15T22:18:57.558Z,8.20
2022-11-15T22:21:25.530Z,8.20
2022-11-15T22:23:53.612Z,8.10
2022-11-15T22:26:23.706Z,8.00
2022-11-15T22:28:52.619Z,8.00
2022-11-15T22:31:21.968Z,7.90
2022-11-15T22:33:49.954Z,7.90
2022-11-15T22:36:18.123Z,7.80
2022-11-15T22:38:46.121Z,7.90
2022-11-15T22:41:14.139Z,7.90
2022-11-15T22:43:42.116Z,7.80
2022-11-15T22:46:11.119Z,7.80
2022-11-15T22:48:40.620Z,7.70
2022-11-15T22:51:10.233Z,7.60
2022-11-15T22:53:38.189Z,7.60
2022-11-15T22:56:07.050Z,7.50
2022-11-15T22:58:35.507Z,7.50
2022-11-15T23:01:05.808Z,7.40
2022-11-15T23:03:34.986Z,7.40
2022-11-15T23:06:06.842Z,7.20
2022-11-15T23:08:35.628Z,7.10
2022-11-15T23:11:23.003Z,7.10
2022-11-15T23:13:52.491Z,7.00
2022-11-15T23:16:23.160Z,7.00
2022-11-15T23:18:52.315Z,6.90
2022-11-15T23:21:37.350Z,6.90
2022-11-15T23:24:06.601Z,6.90
2022-11-15T23:26:34.688Z,6.80
2022-11-15T23:29:02.749Z,6.80
2022-11-15T23:31:48.958Z,6.80
2022-11-15T23:34:22.538Z,6.80
2022-11-15T23:36:52.184Z,6.90
2022-11-15T23:39:20.328Z,6.90
2022-11-15T23:41:48.311Z,6.80
2022-11-15T23:44:16.336Z,6.70
2022-11-15T23:46:44.321Z,6.60
2022-11-15T23:49:12.288Z,6.50
2022-11-15T23:51:40.360Z,6.30
2022-11-15T23:54:09.840Z,6.30
2022-11-15T23:56:38.361Z,6.20
2022-11-15T23:59:06.968Z,6.30
